Terminal Aerodrome Forecast
Issued by NWS Louisville, KY

Home | Current Version | Previous Version | Text Only | Print | Product List | Glossary On
Versions: 1 2 3 4 5 6 7 8 9 10 11 12 13 14 15 16 17 18 19 20 21 22
000
FTUS43 KLMK 301700
TAFLEX
TAF
KLEX 301731Z 3018/0118 24010G15KT P6SM SCT040 BKN250
     FM301830 25011G16KT P6SM VCTS SCT040CB BKN250
      TEMPO 3020/3023 VRB20G30KT 3SM TSRA BKN040CB
     FM010100 VRB04KT P6SM FEW050 SCT250
     FM011000 VRB04KT 5SM BR SCT250
     FM011300 25007KT P6SM SCT035 SCT250=

USA.gov is the U.S. government's official web portal to all federal, state and local government web resources and services.